createdAt,value
2018-09-18T00:00:56.665Z,5.27
2018-09-18T00:04:00.309Z,4.90
2018-09-18T00:07:03.980Z,4.77
2018-09-18T00:10:07.915Z,4.80
2018-09-18T00:13:11.701Z,5.63
2018-09-18T00:16:15.259Z,4.47
2018-09-18T00:19:18.999Z,5.20
2018-09-18T00:22:22.757Z,5.20
2018-09-18T00:25:26.434Z,5.50
2018-09-18T00:28:30.074Z,4.77
2018-09-18T00:31:33.681Z,5.37
2018-09-18T00:34:37.486Z,5.20
2018-09-18T00:37:41.186Z,5.20
2018-09-18T00:40:44.855Z,4.80
2018-09-18T00:43:48.492Z,4.93
2018-09-18T00:46:52.227Z,4.97
2018-09-18T00:49:55.791Z,5.40
2018-09-18T00:52:59.434Z,4.70
2018-09-18T00:56:03.102Z,5.30
2018-09-18T00:59:06.729Z,5.20
2018-09-18T01:02:10.290Z,4.63
2018-09-18T01:05:13.991Z,5.30
2018-09-18T01:08:17.664Z,5.03
2018-09-18T01:11:21.329Z,5.33
2018-09-18T01:14:25.072Z,4.83
2018-09-18T01:17:28.739Z,5.10
2018-09-18T01:20:32.320Z,5.33
2018-09-18T01:23:35.965Z,5.00
2018-09-18T01:26:39.707Z,5.10
2018-09-18T01:29:43.695Z,5.50
2018-09-18T01:32:47.310Z,5.80
2018-09-18T01:35:50.953Z,4.60
2018-09-18T01:38:54.554Z,5.20
2018-09-18T01:41:58.121Z,5.30
2018-09-18T01:45:01.826Z,5.40
2018-09-18T01:48:05.496Z,5.40
2018-09-18T01:51:09.200Z,5.50
2018-09-18T01:54:12.879Z,5.23
2018-09-18T01:57:16.555Z,5.23
2018-09-18T02:00:20.246Z,5.87
2018-09-18T02:03:23.834Z,5.17
2018-09-18T02:06:27.481Z,5.40
2018-09-18T02:09:31.024Z,5.27
2018-09-18T02:12:34.676Z,6.00
2018-09-18T02:15:38.244Z,5.70
2018-09-18T02:18:41.894Z,5.23
2018-09-18T02:21:45.620Z,5.47
2018-09-18T02:24:49.282Z,5.40
2018-09-18T02:27:53.054Z,5.70
2018-09-18T02:30:56.712Z,5.43
2018-09-18T02:34:00.409Z,5.40
2018-09-18T02:37:04.200Z,5.40
2018-09-18T02:40:08.093Z,5.17
2018-09-18T02:43:11.705Z,5.40
2018-09-18T02:46:15.388Z,5.23
2018-09-18T02:49:19.208Z,5.83
2018-09-18T02:52:22.990Z,5.60
2018-09-18T02:55:26.585Z,4.90
2018-09-18T02:58:30.169Z,5.80
2018-09-18T03:01:33.872Z,5.47
2018-09-18T03:04:37.517Z,5.43
2018-09-18T03:07:41.259Z,5.70
2018-09-18T03:10:44.874Z,6.03
2018-09-18T03:13:48.656Z,5.47
2018-09-18T03:16:52.301Z,5.10
2018-09-18T03:19:55.924Z,5.53
2018-09-18T03:22:59.548Z,5.80
2018-09-18T03:26:03.267Z,5.30
2018-09-18T03:29:06.855Z,4.73
2018-09-18T03:32:10.441Z,5.20
2018-09-18T03:35:13.984Z,5.37
2018-09-18T03:38:17.726Z,6.23
2018-09-18T03:41:21.329Z,5.50
2018-09-18T03:44:25.101Z,5.50
2018-09-18T03:47:28.731Z,5.20
2018-09-18T03:50:32.409Z,5.60
2018-09-18T03:53:35.991Z,5.50
2018-09-18T03:56:39.881Z,5.67
2018-09-18T03:59:43.659Z,4.97
2018-09-18T04:02:47.316Z,6.10
2018-09-18T04:05:51.025Z,6.30
2018-09-18T04:08:54.707Z,5.30
2018-09-18T04:11:58.290Z,5.90
2018-09-18T04:15:01.984Z,5.57
2018-09-18T04:18:05.641Z,5.30
2018-09-18T04:21:09.775Z,6.03
2018-09-18T04:24:13.662Z,5.90
2018-09-18T04:27:17.226Z,5.20
2018-09-18T04:30:20.860Z,5.57
2018-09-18T04:33:24.439Z,5.37
2018-09-18T04:36:28.065Z,5.37
2018-09-18T04:39:31.716Z,5.87
2018-09-18T04:42:35.480Z,5.83
2018-09-18T04:45:39.156Z,6.50
2018-09-18T04:48:42.741Z,5.40
2018-09-18T04:51:46.515Z,5.80
2018-09-18T04:54:50.276Z,5.13
2018-09-18T04:57:53.871Z,4.97
2018-09-18T05:00:57.582Z,5.27
2018-09-18T05:04:01.236Z,5.47
2018-09-18T05:07:04.870Z,5.47
2018-09-18T05:10:08.606Z,6.03
2018-09-18T05:13:12.227Z,5.30
2018-09-18T05:16:15.975Z,5.30
2018-09-18T05:19:19.680Z,5.27
2018-09-18T05:22:23.344Z,5.37
2018-09-18T05:25:27.073Z,6.70
2018-09-18T05:28:30.706Z,5.50
2018-09-18T05:31:34.450Z,6.37
2018-09-18T05:34:38.141Z,5.87
2018-09-18T05:37:41.775Z,5.50
2018-09-18T05:40:45.416Z,5.10
2018-09-18T05:43:49.076Z,5.77
2018-09-18T05:46:52.790Z,5.40
2018-09-18T05:49:56.509Z,5.40
2018-09-18T05:53:00.221Z,5.27
2018-09-18T05:56:03.929Z,5.60
2018-09-18T05:59:07.745Z,5.07
2018-09-18T06:02:11.384Z,6.00
2018-09-18T06:05:15.100Z,5.67
2018-09-18T06:08:18.815Z,5.90
2018-09-18T06:11:22.505Z,6.03
2018-09-18T06:14:26.221Z,6.20
2018-09-18T06:17:29.923Z,4.87
2018-09-18T06:20:33.704Z,5.40
2018-09-18T06:23:37.275Z,5.10
2018-09-18T06:26:41.025Z,5.57
2018-09-18T06:29:44.694Z,5.60
2018-09-18T06:32:48.491Z,5.20
2018-09-18T06:35:52.580Z,5.63
2018-09-18T06:38:56.240Z,5.20
2018-09-18T06:41:59.863Z,5.67
2018-09-18T06:45:03.518Z,5.90
2018-09-18T06:48:07.423Z,5.20
2018-09-18T06:51:10.944Z,5.63
2018-09-18T06:54:14.594Z,5.77
2018-09-18T06:57:18.298Z,5.47
2018-09-18T07:00:21.997Z,5.70
2018-09-18T07:03:25.675Z,5.20
2018-09-18T07:06:29.399Z,5.10
2018-09-18T07:09:33.036Z,5.80
2018-09-18T07:12:36.601Z,5.60
2018-09-18T07:15:40.509Z,5.53
2018-09-18T07:18:44.149Z,5.67
2018-09-18T07:21:48.052Z,5.77
2018-09-18T07:24:51.744Z,5.97
2018-09-18T07:27:55.360Z,5.30
2018-09-18T07:30:59.059Z,5.70
2018-09-18T07:34:02.794Z,5.80
2018-09-18T07:37:06.589Z,5.40
2018-09-18T07:40:10.173Z,5.63
2018-09-18T07:43:13.820Z,6.00
2018-09-18T07:46:17.484Z,5.70
2018-09-18T07:49:21.139Z,5.67
2018-09-18T07:52:24.957Z,5.40
2018-09-18T07:55:28.587Z,5.23
2018-09-18T07:58:32.351Z,5.90
2018-09-18T08:01:35.981Z,5.33
2018-09-18T08:04:39.601Z,6.07
2018-09-18T08:07:43.184Z,6.30
2018-09-18T08:10:46.867Z,5.53
2018-09-18T08:13:50.621Z,5.70
2018-09-18T08:16:54.281Z,6.40
2018-09-18T08:19:58.141Z,5.67
2018-09-18T08:23:02.172Z,6.10
2018-09-18T08:26:06.088Z,6.20
2018-09-18T08:29:11.526Z,6.10
2018-09-18T08:32:15.864Z,5.97
2018-09-18T08:35:19.534Z,6.10
2018-09-18T08:38:23.400Z,5.70
2018-09-18T08:41:27.037Z,6.00
2018-09-18T08:44:30.777Z,5.77
2018-09-18T08:47:34.496Z,6.00
2018-09-18T08:50:38.392Z,5.53
2018-09-18T08:53:42.238Z,5.70
2018-09-18T08:56:45.912Z,5.83
2018-09-18T08:59:49.575Z,5.70
2018-09-18T09:02:53.554Z,5.67
2018-09-18T09:05:57.226Z,5.20
2018-09-18T09:09:01.007Z,6.03
2018-09-18T09:12:04.673Z,5.77
2018-09-18T09:15:08.519Z,6.00
2018-09-18T09:18:12.188Z,6.13
2018-09-18T09:21:15.944Z,5.90
2018-09-18T09:24:19.654Z,5.97
2018-09-18T09:27:23.429Z,5.87
2018-09-18T09:30:27.160Z,5.67
2018-09-18T09:33:31.015Z,5.63
2018-09-18T09:36:34.665Z,6.10
2018-09-18T09:39:38.371Z,5.70
2018-09-18T09:42:42.111Z,5.30
2018-09-18T09:45:45.727Z,6.20
2018-09-18T09:48:49.474Z,6.07
2018-09-18T09:51:53.102Z,5.30
2018-09-18T09:54:56.761Z,6.30
2018-09-18T09:58:00.405Z,5.57
2018-09-18T10:01:09.309Z,5.90
2018-09-18T10:04:12.960Z,6.00
2018-09-18T10:07:16.767Z,5.47
2018-09-18T10:10:20.324Z,6.33
2018-09-18T10:13:24.189Z,5.60
2018-09-18T10:16:27.926Z,5.57
2018-09-18T10:19:31.540Z,5.40
2018-09-18T10:22:35.379Z,6.13
2018-09-18T10:25:39.034Z,5.60
2018-09-18T10:28:42.690Z,5.80
2018-09-18T10:31:46.299Z,5.90
2018-09-18T10:34:49.977Z,5.30
2018-09-18T10:37:53.684Z,5.50
2018-09-18T10:40:57.539Z,5.20
2018-09-18T10:44:01.132Z,5.10
2018-09-18T10:47:04.821Z,5.53
2018-09-18T10:50:08.485Z,5.70
2018-09-18T10:53:12.129Z,5.20
2018-09-18T10:56:15.814Z,5.30
2018-09-18T10:59:19.639Z,5.03
2018-09-18T11:02:23.371Z,5.40
2018-09-18T11:05:26.942Z,4.50
2018-09-18T11:08:30.623Z,5.10
2018-09-18T11:11:34.172Z,5.07
2018-09-18T11:14:38.547Z,5.50
2018-09-18T11:17:42.147Z,5.60
2018-09-18T11:20:45.828Z,5.23
2018-09-18T11:23:49.430Z,5.40
2018-09-18T11:26:53.050Z,5.47
2018-09-18T11:29:56.646Z,4.90
2018-09-18T11:33:00.401Z,5.27
2018-09-18T11:36:04.077Z,5.23
2018-09-18T11:39:10.441Z,5.10
2018-09-18T11:42:14.351Z,6.60
2018-09-18T11:45:17.941Z,5.20
2018-09-18T11:48:21.575Z,4.90
2018-09-18T11:51:25.360Z,5.30
2018-09-18T11:54:29.004Z,5.27
2018-09-18T11:57:32.670Z,5.20
2018-09-18T12:00:36.539Z,5.13
2018-09-18T12:03:40.512Z,4.60
2018-09-18T12:06:44.471Z,5.10
2018-09-18T12:09:48.357Z,5.30
2018-09-18T12:12:51.977Z,4.73
2018-09-18T12:15:55.790Z,4.60
2018-09-18T12:18:59.525Z,5.40
2018-09-18T12:22:03.329Z,5.40
2018-09-18T12:25:07.038Z,4.90
2018-09-18T12:28:10.826Z,4.87
2018-09-18T12:31:14.500Z,5.10
2018-09-18T12:34:19.135Z,4.87
2018-09-18T12:37:22.850Z,5.10
2018-09-18T12:40:26.485Z,5.00
2018-09-18T12:43:30.275Z,4.90
2018-09-18T12:46:34.899Z,4.90
2018-09-18T12:49:39.869Z,4.97
2018-09-18T12:52:43.479Z,4.47
2018-09-18T12:55:47.165Z,4.97
2018-09-18T12:58:51.021Z,5.33
2018-09-18T13:01:54.657Z,4.83
2018-09-18T13:04:58.411Z,4.60
2018-09-18T13:08:02.166Z,4.83
2018-09-18T13:11:05.912Z,5.30
2018-09-18T13:14:10.210Z,4.80
2018-09-18T13:17:13.827Z,4.70
2018-09-18T13:20:17.554Z,5.40
2018-09-18T13:23:21.491Z,5.80
2018-09-18T13:26:25.199Z,5.87
2018-09-18T13:29:28.871Z,5.57
2018-09-18T13:32:32.579Z,5.80
2018-09-18T13:35:36.326Z,5.73
2018-09-18T13:38:40.127Z,5.90
2018-09-18T13:41:44.034Z,5.83
2018-09-18T13:44:47.770Z,6.50
2018-09-18T13:47:51.692Z,5.30
2018-09-18T13:50:55.414Z,5.60
2018-09-18T13:53:59.116Z,5.60
2018-09-18T13:57:02.795Z,5.70
2018-09-18T14:00:06.804Z,5.93
2018-09-18T14:03:10.603Z,5.00
2018-09-18T14:06:14.259Z,5.67
2018-09-18T14:09:17.924Z,5.40
2018-09-18T14:12:21.697Z,5.40
2018-09-18T14:15:25.394Z,5.67
2018-09-18T14:18:29.165Z,5.10
2018-09-18T14:21:33.737Z,4.90
2018-09-18T14:24:37.406Z,5.37
2018-09-18T14:27:41.282Z,5.03
2018-09-18T14:30:45.141Z,4.90
2018-09-18T14:33:48.911Z,5.63
2018-09-18T14:36:52.659Z,5.10
2018-09-18T14:39:56.564Z,5.00
2018-09-18T14:43:00.235Z,5.43
2018-09-18T14:46:03.985Z,5.20
2018-09-18T14:49:07.685Z,5.27
2018-09-18T14:52:11.674Z,5.40
2018-09-18T14:55:15.343Z,5.73
2018-09-18T14:58:21.470Z,4.87
2018-09-18T15:01:25.206Z,5.47
2018-09-18T15:04:28.963Z,5.03
2018-09-18T15:07:34.506Z,5.27
2018-09-18T15:10:39.071Z,5.47
2018-09-18T15:13:42.822Z,5.30
2018-09-18T15:16:46.659Z,4.60
2018-09-18T15:19:50.357Z,5.00
2018-09-18T15:22:54.285Z,4.67
2018-09-18T15:25:58.170Z,5.20
2018-09-18T15:29:02.015Z,4.60
2018-09-18T15:32:07.011Z,5.03
2018-09-18T15:35:10.734Z,5.17
2018-09-18T15:38:14.632Z,4.70
2018-09-18T15:41:18.399Z,4.80
2018-09-18T15:44:22.101Z,4.80
2018-09-18T15:47:25.872Z,5.37
2018-09-18T15:50:29.606Z,5.30
2018-09-18T15:53:33.352Z,5.27
2018-09-18T15:56:37.366Z,5.03
2018-09-18T15:59:41.147Z,5.17
2018-09-18T16:02:44.931Z,5.30
2018-09-18T16:05:48.928Z,6.07
2018-09-18T16:08:52.628Z,5.20
2018-09-18T16:11:56.276Z,5.37
2018-09-18T16:15:00.373Z,5.37
2018-09-18T16:18:04.236Z,5.33
2018-09-18T16:21:08.062Z,5.20
2018-09-18T16:24:11.760Z,5.10
2018-09-18T16:27:15.601Z,5.27
2018-09-18T16:30:19.278Z,6.93
2018-09-18T16:33:23.350Z,5.67
2018-09-18T16:36:27.055Z,5.60
2018-09-18T16:39:30.758Z,5.20
2018-09-18T16:42:34.638Z,6.07
2018-09-18T16:45:38.535Z,4.93
2018-09-18T16:48:42.347Z,5.07
2018-09-18T16:51:46.220Z,5.30
2018-09-18T16:54:49.983Z,5.13
2018-09-18T16:57:53.639Z,5.30
2018-09-18T17:00:57.424Z,5.30
2018-09-18T17:04:01.359Z,6.23
2018-09-18T17:07:05.263Z,4.83
2018-09-18T17:10:09.135Z,5.53
2018-09-18T17:13:13.331Z,5.07
2018-09-18T17:16:17.089Z,5.07
2018-09-18T17:19:20.799Z,4.80
2018-09-18T17:22:24.937Z,5.00
2018-09-18T17:25:28.813Z,5.00
2018-09-18T17:28:32.611Z,4.60
2018-09-18T17:31:36.455Z,4.40
2018-09-18T17:34:40.227Z,4.70
2018-09-18T17:37:44.155Z,4.50
2018-09-18T17:40:48.377Z,4.70
2018-09-18T17:43:52.734Z,5.43
2018-09-18T17:46:56.601Z,4.70
2018-09-18T17:50:00.318Z,4.70
2018-09-18T17:53:04.168Z,4.80
2018-09-18T17:56:07.910Z,4.50
2018-09-18T17:59:12.411Z,4.53
2018-09-18T18:02:16.316Z,4.30
2018-09-18T18:05:20.641Z,4.03
2018-09-18T18:08:25.074Z,4.47
2018-09-18T18:11:29.105Z,4.53
2018-09-18T18:14:32.823Z,3.97
2018-09-18T18:17:36.633Z,4.10
2018-09-18T18:20:40.323Z,4.70
2018-09-18T18:23:43.965Z,3.93
2018-09-18T18:26:47.769Z,4.70
2018-09-18T18:29:51.441Z,4.10
2018-09-18T18:32:55.144Z,4.40
2018-09-18T18:35:58.983Z,4.50
2018-09-18T18:39:02.709Z,4.27
2018-09-18T18:42:06.462Z,4.57
2018-09-18T18:45:10.272Z,4.47
2018-09-18T18:48:14.547Z,4.10
2018-09-18T18:51:18.428Z,4.40
2018-09-18T18:54:24.237Z,3.87
2018-09-18T18:57:28.056Z,4.20
2018-09-18T19:00:32.056Z,4.43
2018-09-18T19:03:35.710Z,4.20
2018-09-18T19:06:39.476Z,3.80
2018-09-18T19:09:43.164Z,4.03
2018-09-18T19:12:47.118Z,4.00
2018-09-18T19:15:50.956Z,4.33
2018-09-18T19:18:54.849Z,4.43
2018-09-18T19:21:58.563Z,4.00
2018-09-18T19:25:02.460Z,4.47
2018-09-18T19:28:06.300Z,4.43
2018-09-18T19:31:10.139Z,4.17
2018-09-18T19:34:14.018Z,4.70
2018-09-18T19:37:17.890Z,4.17
2018-09-18T19:40:21.742Z,5.13
2018-09-18T19:43:25.477Z,4.40
2018-09-18T19:46:29.207Z,4.47
2018-09-18T19:49:33.150Z,5.00
2018-09-18T19:52:36.858Z,4.90
2018-09-18T19:55:40.556Z,4.80
2018-09-18T19:58:44.408Z,5.00
2018-09-18T20:01:48.207Z,5.20
2018-09-18T20:04:52.033Z,5.10
2018-09-18T20:07:55.905Z,5.40
2018-09-18T20:10:59.736Z,5.47
2018-09-18T20:14:03.557Z,4.53
2018-09-18T20:17:07.355Z,4.97
2018-09-18T20:20:11.290Z,5.33
2018-09-18T20:23:15.079Z,5.40
2018-09-18T20:26:18.876Z,5.20
2018-09-18T20:29:22.662Z,5.33
2018-09-18T20:32:26.318Z,5.37
2018-09-18T20:35:30.057Z,5.40
2018-09-18T20:38:33.765Z,5.63
2018-09-18T20:41:37.696Z,5.30
2018-09-18T20:44:41.446Z,5.87
2018-09-18T20:47:45.210Z,5.67
2018-09-18T20:50:48.974Z,5.47
2018-09-18T20:53:52.832Z,5.70
2018-09-18T20:56:56.572Z,5.90
2018-09-18T21:00:00.306Z,6.07
2018-09-18T21:03:04.041Z,6.20
2018-09-18T21:06:07.954Z,6.30
2018-09-18T21:09:11.876Z,6.00
2018-09-18T21:12:15.637Z,5.63
2018-09-18T21:15:19.438Z,7.37
2018-09-18T21:18:23.260Z,5.43
2018-09-18T21:21:27.100Z,5.97
2018-09-18T21:24:31.036Z,6.30
2018-09-18T21:27:34.668Z,6.47
2018-09-18T21:30:38.345Z,6.50
2018-09-18T21:33:42.116Z,6.23
2018-09-18T21:36:45.791Z,6.20
2018-09-18T21:39:49.495Z,5.90
2018-09-18T21:42:53.176Z,6.20
2018-09-18T21:45:56.892Z,6.20
2018-09-18T21:49:00.758Z,6.70
2018-09-18T21:52:04.459Z,6.80
2018-09-18T21:55:08.225Z,7.10
2018-09-18T21:58:11.806Z,6.77
2018-09-18T22:01:15.667Z,6.47
2018-09-18T22:04:19.456Z,7.07
2018-09-18T22:07:23.022Z,6.57
2018-09-18T22:10:26.854Z,6.60
2018-09-18T22:13:30.508Z,6.67
2018-09-18T22:16:34.180Z,6.40
2018-09-18T22:19:37.840Z,6.90
2018-09-18T22:22:41.610Z,7.10
2018-09-18T22:25:45.321Z,7.07
2018-09-18T22:28:48.943Z,6.40
2018-09-18T22:31:52.622Z,6.60
2018-09-18T22:34:56.274Z,6.60
2018-09-18T22:37:59.985Z,6.10
2018-09-18T22:41:03.673Z,6.67
2018-09-18T22:44:07.639Z,6.67
2018-09-18T22:47:11.362Z,6.70
2018-09-18T22:50:14.962Z,6.27
2018-09-18T22:53:18.668Z,7.20
2018-09-18T22:56:22.379Z,6.33
2018-09-18T22:59:25.987Z,6.40
2018-09-18T23:02:29.584Z,6.73
2018-09-18T23:05:33.222Z,6.60
2018-09-18T23:08:36.849Z,6.80
2018-09-18T23:11:40.443Z,6.77
2018-09-18T23:14:44.056Z,6.77
2018-09-18T23:17:47.657Z,6.60
2018-09-18T23:20:51.260Z,6.37
2018-09-18T23:23:54.989Z,6.30
2018-09-18T23:26:58.605Z,6.80
2018-09-18T23:30:02.299Z,6.80
2018-09-18T23:33:06.227Z,6.20
2018-09-18T23:36:09.836Z,7.27
2018-09-18T23:39:13.464Z,6.63
2018-09-18T23:42:17.157Z,6.63
2018-09-18T23:45:20.690Z,7.13
2018-09-18T23:48:24.398Z,6.70
2018-09-18T23:51:28.364Z,6.27
2018-09-18T23:54:31.930Z,6.40
2018-09-18T23:57:36.222Z,6.70
